Latest Weather Observations for Cape Borda

IDS60801

Issued at 7:11 am CST Sunday 21 April 2024 (issued every 10 minutes, with the page automatically refreshed every 10 minutes)

About weather observations | Map of weather stations | Latest weather observations for SA | Other Formats
Station Details ID: 022823 Name: CAPE BORDA Lat: -35.75 Lon: 136.60 Height: 158.0 m
Data from the previous 72 hours. | See also: Recent months at Cape Borda
Date/Time
CST
Temp
°C
App
Temp
°C
Dew
Point
°C
Rel
Hum
%
Delta-T
°C
Wind Press
QNH
hPa
Press
MSL
hPa
Rain since
9am
mm
Dir  Spd
km/h
Gust
km/h
Spd
kts
Gust
kts
21/07:00am 7.3 3.2 6.4 94 0.4 ESE 17 19 9 10 1031.1 1031.0 0.0
21/06:30am 7.0 2.9 6.1 94 0.4 ESE 17 19 9 10 1030.9 1030.7 0.0
21/06:00am 6.7 2.5 5.8 94 0.4 ESE 17 17 9 9 1030.8 1030.6 0.0
21/05:30am 7.0 2.9 6.1 94 0.4 ESE 17 19 9 10 1030.7 1030.5 0.0
21/05:00am 7.0 2.9 6.1 94 0.4 ESE 17 20 9 11 1030.7 1030.5 0.0
21/04:30am 7.1 3.0 6.0 93 0.5 ESE 17 19 9 10 1030.8 1030.6 0.0
21/04:00am 7.7 3.7 6.8 94 0.4 ESE 17 19 9 10 1030.9 1030.7 0.0
21/03:30am 7.9 4.0 7.0 94 0.4 SE 17 20 9 11 1030.9 1030.7 0.0
21/03:00am 7.6 3.6 6.7 94 0.4 ESE 17 19 9 10 1031.1 1031.0 0.0
21/02:30am 7.9 3.9 6.8 93 0.5 ESE 17 20 9 11 1031.0 1030.9 0.0
21/02:00am 7.6 3.6 6.5 93 0.5 ESE 17 19 9 10 1031.0 1030.9 0.0
21/01:30am 7.8 3.8 6.7 93 0.5 ESE 17 20 9 11 1031.2 1031.1 0.0
21/01:00am 7.7 3.7 6.6 93 0.5 ESE 17 19 9 10 1031.1 1031.0 0.0
21/12:30am 7.8 3.8 6.6 92 0.6 ESE 17 19 9 10 1031.1 1031.0 0.0
21/12:00am 8.2 3.9 7.0 92 0.6 ESE 19 20 10 11 1031.1 1031.0 0.0
 
Date/Time
CST
Temp
°C
App
Temp
°C
Dew
Point
°C
Rel
Hum
%
Delta-T
°C
Wind Press
QNH
hPa
Press
MSL
hPa
Rain since
9am
mm
Dir  Spd
km/h
Gust
km/h
Spd
kts
Gust
kts
20/11:30pm 8.4 4.5 7.0 91 0.7 SE 17 17 9 9 1031.4 1031.2 0.0
20/11:00pm 8.8 5.0 7.4 91 0.7 SE 17 20 9 11 1031.7 1031.5 0.0
20/10:30pm 8.8 5.0 7.4 91 0.7 SE 17 19 9 10 1031.9 1031.7 0.0
20/10:00pm 8.8 5.0 7.4 91 0.7 SE 17 19 9 10 1032.2 1032.0 0.0
20/09:30pm 8.9 5.1 7.4 90 0.7 ESE 17 17 9 9 1032.4 1032.2 0.0
20/09:00pm 9.3 5.5 7.4 88 0.9 SE 17 19 9 10 1032.5 1032.3 0.0
20/08:30pm 10.0 5.9 7.9 87 1.0 SE 19 20 10 11 1032.4 1032.2 0.0
20/08:00pm 10.6 6.5 8.0 84 1.3 SE 19 20 10 11 1032.5 1032.3 0.0
20/07:30pm 10.8 6.8 8.2 84 1.3 SE 19 20 10 11 1032.6 1032.4 0.0
20/07:00pm 11.2 7.2 8.2 82 1.5 SE 19 22 10 12 1032.3 1032.1 0.0
20/06:30pm 11.8 7.8 8.1 78 1.8 SE 19 24 10 13 1032.0 1031.8 0.0
20/06:00pm 12.7 8.4 8.0 73 2.3 SSE 20 26 11 14 1031.7 1031.5 0.0
20/05:30pm 13.9 8.9 8.1 68 2.9 SE 24 32 13 17 1031.2 1031.1 0.0
20/05:00pm 15.1 9.8 8.6 65 3.3 SE 26 33 14 18 1030.9 1030.7 0.0
20/04:30pm 16.1 10.8 8.6 61 3.8 SSE 26 33 14 18 1030.7 1030.5 0.0
20/04:00pm 17.6 12.8 9.0 57 4.5 SE 24 33 13 18 1030.5 1030.3 0.0
20/03:30pm 18.5 13.7 9.0 54 5.0 SSE 24 35 13 19 1030.4 1030.2 0.0
20/03:00pm 17.9 12.7 9.0 56 4.6 SW 26 35 14 19 1030.3 1030.1 0.0
20/02:30pm 17.8 13.8 9.2 57 4.5 SW 20 26 11 14 1030.5 1030.3 0.0
20/02:00pm 16.7 13.3 9.1 61 4.0 W 17 22 9 12 1030.9 1030.7 0.0
20/01:30pm 16.4 12.9 8.9 61 3.9 NW 17 22 9 12 1031.2 1031.1 0.0
20/01:00pm 16.1 12.9 8.6 61 3.9 NW 15 20 8 11 1031.6 1031.4 0.0
20/12:30pm 16.0 13.2 8.5 61 3.8 NNW 13 17 7 9 1032.0 1031.8 0.0
20/12:00pm 15.8 12.6 8.5 62 3.7 NNW 15 19 8 10 1032.3 1032.1 0.0
20/11:30am 15.8 12.9 8.3 61 3.8 N 13 17 7 9 1032.7 1032.5 0.0
20/11:00am 15.6 12.7 8.1 61 3.8 ESE 13 19 7 10 1032.9 1032.7 0.0
20/10:30am 15.3 11.9 7.8 61 3.7 ENE 15 24 8 13 1032.7 1032.5 0.0
20/10:00am 14.7 11.8 8.2 65 3.3 ESE 13 19 7 10 1032.9 1032.7 0.0
20/09:30am 14.3 11.5 8.5 68 2.9 ESE 13 22 7 12 1032.9 1032.7 0.0
20/09:00am 13.9 10.3 8.3 69 2.8 ESE 17 24 9 13 1032.8 1032.6 0.0
20/08:30am 13.6 11.0 7.8 68 2.9 SE 11 17 6 9 1032.5 1032.3 0.0
20/08:00am 13.0 10.4 7.7 70 2.6 ESE 11 15 6 8 1032.4 1032.2 0.0
20/07:30am 12.5 10.4 8.2 75 2.1 ESE 9 11 5 6 1032.1 1031.9 0.0
20/07:00am 12.3 10.5 8.0 75 2.1 SE 7 11 4 6 1031.7 1031.5 0.0
20/06:30am 12.4 10.2 7.9 74 2.2 SE 9 9 5 5 1031.5 1031.3 0.0
20/06:00am 12.4 10.5 7.7 73 2.3 ESE 7 13 4 7 1031.4 1031.2 0.0
20/05:30am 12.6 9.6 7.7 72 2.4 ESE 13 19 7 10 1031.4 1031.2 0.0
20/05:00am 12.6 9.6 7.7 72 2.4 ESE 13 17 7 9 1031.0 1030.9 0.0
20/04:30am 12.7 10.2 8.0 73 2.3 SE 11 17 6 9 1030.9 1030.7 0.0
20/04:00am 12.4 10.2 7.7 73 2.3 ESE 9 15 5 8 1030.7 1030.5 0.0
20/03:30am 12.8 9.4 7.5 70 2.6 ESE 15 22 8 12 1030.4 1030.2 0.0
20/03:00am 12.8 10.3 8.1 73 2.3 ESE 11 15 6 8 1030.5 1030.3 0.0
20/02:30am 12.8 10.7 8.1 73 2.3 ESE 9 13 5 7 1030.5 1030.3 0.0
20/02:00am 12.8 10.7 8.1 73 2.3 ESE 9 15 5 8 1030.7 1030.5 0.0
20/01:30am 12.9 10.0 8.0 72 2.4 SE 13 24 7 13 1030.8 1030.6 0.0
20/01:00am 12.7 10.5 8.0 73 2.3 SE 9 15 5 8 1030.9 1030.7 0.0
20/12:30am 12.7 10.1 7.8 72 2.4 ESE 11 15 6 8 1030.8 1030.6 0.0
20/12:00am 12.8 9.4 7.7 71 2.5 SE 15 26 8 14 1030.8 1030.6 0.0
 
Date/Time
CST
Temp
°C
App
Temp
°C
Dew
Point
°C
Rel
Hum
%
Delta-T
°C
Wind Press
QNH
hPa
Press
MSL
hPa
Rain since
9am
mm
Dir  Spd
km/h
Gust
km/h
Spd
kts
Gust
kts
19/11:30pm 12.8 9.8 7.7 71 2.5 SE 13 24 7 13 1030.9 1030.7 0.0
19/11:00pm 12.8 10.2 7.9 72 2.4 ESE 11 19 6 10 1031.0 1030.9 0.0
19/10:30pm 13.0 9.3 7.9 71 2.5 SE 17 26 9 14 1031.2 1031.1 0.0
19/10:00pm 13.0 8.7 7.7 70 2.6 SE 20 30 11 16 1031.2 1031.1 0.0
19/09:30pm 13.0 8.9 7.9 71 2.5 SE 19 28 10 15 1031.0 1030.9 0.0
19/09:00pm 13.0 8.9 7.7 70 2.6 SE 19 30 10 16 1030.9 1030.7 0.0
19/08:30pm 13.1 9.0 8.0 71 2.5 SE 19 26 10 14 1030.7 1030.5 0.0
19/08:00pm 13.1 9.8 8.2 72 2.4 SE 15 22 8 12 1030.6 1030.4 0.0
19/07:30pm 12.8 8.4 7.5 70 2.6 SE 20 33 11 18 1030.3 1030.1 0.0
19/07:00pm 12.9 8.4 7.1 68 2.8 SSE 20 33 11 18 1030.0 1029.8 0.0
19/06:30pm 13.3 8.9 7.5 68 2.8 SE 20 32 11 17 1029.7 1029.5 0.0
19/06:00pm 13.8 9.5 7.8 67 3.0 SE 20 30 11 16 1029.2 1029.0 0.0
19/05:30pm 14.2 10.1 7.7 65 3.2 SSE 19 32 10 17 1028.9 1028.7 0.0
19/05:00pm 15.0 10.2 7.3 60 3.8 SSE 22 33 12 18 1028.6 1028.4 0.0
19/04:30pm 15.1 9.6 7.4 60 3.8 SE 26 35 14 19 1028.4 1028.2 0.0
19/04:00pm 16.1 11.0 7.8 58 4.2 SE 24 35 13 19 1028.2 1028.0 0.0
19/03:30pm 17.0 12.8 8.2 56 4.5 SE 20 32 11 17 1028.1 1027.9 0.0
19/03:00pm 16.2 11.1 7.7 57 4.3 SSE 24 35 13 19 1028.0 1027.8 0.0
19/02:30pm 16.4 11.4 8.1 58 4.2 SE 24 32 13 17 1027.9 1027.7 0.0
19/02:00pm 16.2 11.1 7.7 57 4.3 SE 24 39 13 21 1028.0 1027.8 0.0
19/01:30pm 16.6 10.9 8.3 58 4.2 SSE 28 35 15 19 1027.9 1027.7 0.0
19/01:00pm 16.0 11.2 8.7 62 3.8 SSE 24 32 13 17 1028.2 1028.0 0.0
19/12:30pm 16.3 11.4 8.5 60 4.0 SE 24 37 13 20 1028.2 1028.0 0.0
19/12:00pm 16.2 12.1 10.1 67 3.2 SE 22 32 12 17 1028.6 1028.4 0.0
19/11:30am 16.0 10.5 7.7 58 4.2 SE 26 35 14 19 1028.3 1028.1 0.0
19/11:00am 16.1 11.4 9.1 63 3.6 SE 24 37 13 20 1028.2 1028.0 0.0
19/10:30am 15.7 12.2 10.2 70 2.9 SE 19 24 10 13 1028.0 1027.8 0.0
19/10:00am 15.0 10.1 8.5 65 3.3 SE 24 32 13 17 1027.8 1027.6 0.0
19/09:30am 15.4 11.2 9.7 69 3.0 SE 22 33 12 18 1027.5 1027.3 0.0
19/09:00am 13.9 10.1 9.9 77 2.1 SE 20 30 11 16 1027.5 1027.3 1.0
19/08:30am 14.0 10.6 9.2 73 2.4 SSE 17 20 9 11 1027.0 1026.8 1.0
19/08:00am 13.0 8.7 9.4 79 1.8 SSE 22 30 12 16 1026.7 1026.5 1.0
19/07:30am 13.1 9.5 8.2 72 2.4 SSE 17 24 9 13 1026.2 1026.0 1.0
19/07:00am 12.9 10.2 8.8 76 2.1 SSE 13 19 7 10 1026.0 1025.8 1.0
19/06:30am 12.6 8.9 9.4 81 1.6 SSE 19 28 10 15 1025.7 1025.5 1.0
19/06:00am 13.1 8.9 9.9 81 1.6 S 22 35 12 19 1025.5 1025.2 1.0
19/05:30am 12.9 9.1 9.9 82 1.5 S 20 28 11 15 1025.3 1025.0 1.0
19/05:00am 12.6 6.6 10.1 85 1.3 SSE 32 44 17 24 1025.0 1024.7 1.0
19/04:30am 12.6 7.9 9.2 80 1.7 S 24 32 13 17 1024.3 1024.1 1.0
19/04:00am 12.5 6.9 8.6 77 2.0 S 28 39 15 21 1024.1 1023.9 1.0
19/03:30am 12.2 6.5 8.5 78 1.8 S 28 35 15 19 1024.1 1023.9 1.0
19/03:00am 12.2 7.0 10.1 87 1.1 S 28 37 15 20 1024.1 1023.9 1.0
19/02:30am 12.7 8.3 11.8 94 0.5 S 26 33 14 18 1024.2 1024.0 1.0
19/02:00am 13.1 8.9 12.5 96 0.3 S 26 35 14 19 1024.3 1024.1 1.0
19/01:30am 13.5 9.1 12.9 96 0.3 SSE 28 39 15 21 1024.2 1024.0 1.0
19/01:00am 13.8 8.8 13.3 97 0.3 SSE 32 44 17 24 1024.0 1023.8 1.0
19/12:38am 14.4 10.3 13.8 96 0.3 S 28 46 15 25 1024.0 1023.8 1.0
19/12:30am 14.9 11.4 14.4 97 0.3 S 26 35 14 19 1024.0 1023.8 0.8
19/12:00am 14.7 10.3 14.1 96 0.3 S 30 41 16 22 1024.1 1023.9 0.8
 
Date/Time
CST
Temp
°C
App
Temp
°C
Dew
Point
°C
Rel
Hum
%
Delta-T
°C
Wind Press
QNH
hPa
Press
MSL
hPa
Rain since
9am
mm
Dir  Spd
km/h
Gust
km/h
Spd
kts
Gust
kts
18/11:30pm 15.2 12.1 14.6 96 0.3 SW 24 35 13 19 1024.2 1024.0 0.2
18/11:00pm 15.2 12.1 14.4 95 0.5 SW 24 32 13 17 1024.5 1024.3 0.2
18/10:30pm 15.0 12.2 14.2 95 0.5 SW 22 30 12 16 1024.9 1024.6 0.2
18/10:00pm 14.8 12.3 14.0 95 0.5 SW 20 32 11 17 1025.0 1024.7 0.2
18/09:30pm 14.5 11.5 13.7 95 0.4 SSW 22 30 12 16 1025.2 1024.9 0.2
18/09:00pm 14.7 10.5 13.6 93 0.6 SSW 28 41 15 22 1025.3 1025.0 0.0
18/08:30pm 14.8 10.9 13.2 90 0.9 SW 26 37 14 20 1025.2 1024.9 0.0
18/08:00pm 14.5 9.8 13.2 92 0.7 SW 30 39 16 21 1025.4 1025.1 0.0
18/07:30pm 14.3 10.4 13.2 93 0.6 SW 26 33 14 18 1025.3 1025.0 0.0
18/07:00pm 14.7 10.6 12.6 87 1.2 SW 26 35 14 19 1025.2 1024.9 0.0
18/06:30pm 15.0 9.5 12.0 82 1.6 SW 32 43 17 23 1025.2 1024.9 0.0
18/06:00pm 15.1 10.5 10.9 76 2.2 SW 26 39 14 21 1025.2 1024.9 0.0
18/05:30pm 15.3 10.3 10.9 75 2.3 SW 28 39 15 21 1025.2 1024.9 0.0
18/05:00pm 15.6 10.9 10.6 72 2.7 SW 26 35 14 19 1025.3 1025.0 0.0
18/04:30pm 16.1 11.0 10.6 70 2.9 SW 28 39 15 21 1025.4 1025.1 0.0
18/04:00pm 16.4 11.4 12.2 76 2.3 SW 30 41 16 22 1025.6 1025.4 0.0
18/03:30pm 16.1 10.9 11.7 75 2.4 SW 30 39 16 21 1025.7 1025.5 0.0
18/03:00pm 15.8 12.2 12.0 78 2.1 SW 22 32 12 17 1025.9 1025.7 0.0
18/02:30pm 15.3 11.2 11.5 78 2.0 SW 24 33 13 18 1026.1 1025.9 0.0
18/02:00pm 16.2 11.6 11.2 72 2.7 SW 26 37 14 20 1026.2 1026.0 0.0
18/01:30pm 16.3 11.5 11.7 74 2.5 SW 28 39 15 21 1026.4 1026.2 0.0
18/01:00pm 14.6 10.3 11.9 84 1.5 WSW 26 41 14 22 1026.9 1026.7 0.0
18/12:30pm 13.9 10.2 12.6 92 0.7 WSW 24 33 13 18 1027.3 1027.1 0.0
18/12:24pm 13.8 9.2 12.4 91 0.8 WSW 28 46 15 25 1027.6 1027.4 0.0
18/12:00pm 13.6 9.5 11.3 86 1.2 SW 24 33 13 18 1027.8 1027.6 0.0
18/11:30am 16.4 13.2 11.1 71 2.8 SW 19 28 10 15 1027.9 1027.7 0.0
18/11:00am 14.7 9.5 10.1 74 2.4 SW 28 39 15 21 1028.1 1027.9 0.0
18/10:30am 16.4 11.5 10.0 66 3.4 SW 26 35 14 19 1028.1 1027.9 0.0
18/10:00am 15.1 11.4 10.3 73 2.5 SW 20 30 11 16 1028.2 1028.0 0.0
18/09:30am 16.0 13.0 9.4 65 3.4 WSW 15 22 8 12 1028.2 1028.0 0.0
18/09:00am 15.3 11.8 8.8 65 3.3 WSW 17 20 9 11 1028.3 1028.1 0.0
18/08:30am 14.8 11.9 8.3 65 3.3 WSW 13 19 7 10 1028.2 1028.0 0.0
18/08:00am 14.4 11.0 7.5 63 3.4 SW 15 20 8 11 1028.1 1027.9 0.0
18/07:30am 14.0 10.1 7.1 63 3.4 SSW 17 24 9 13 1027.9 1027.7 0.0

Other formats

Comma delimited format used in spreadsheet applications
http://www.bom.gov.au/fwo/IDS60801/IDS60801.95805.axf

JavaScript Object Notation format (JSON) in row-major order
http://www.bom.gov.au/fwo/IDS60801/IDS60801.95805.json

Data quality

Most of these data are generated automatically and are frequently updated. Quality checks on data are not normally performed. It is possible for incorrect values to appear. Refer to information at About Latest Weather Observations and please check the disclaimer before using these data.